sensor_id;sensor_type;location;lat;lon;timestamp;temperature;humidity
22153;DHT22;11242;50.536;12.688;2022-08-03T00:00:51;14.90;99.90
22153;DHT22;11242;50.536;12.688;2022-08-03T00:03:17;14.90;99.90
22153;DHT22;11242;50.536;12.688;2022-08-03T00:05:42;15.00;99.90
22153;DHT22;11242;50.536;12.688;2022-08-03T00:08:08;15.00;99.90
22153;DHT22;11242;50.536;12.688;2022-08-03T00:10:34;15.00;99.90
22153;DHT22;11242;50.536;12.688;2022-08-03T00:13:01;15.00;99.90
22153;DHT22;11242;50.536;12.688;2022-08-03T00:15:27;15.10;99.90
22153;DHT22;11242;50.536;12.688;2022-08-03T00:17:52;15.00;99.90
22153;DHT22;11242;50.536;12.688;2022-08-03T00:20:18;14.90;99.90
22153;DHT22;11242;50.536;12.688;2022-08-03T00:22:43;14.80;99.90
22153;DHT22;11242;50.536;12.688;2022-08-03T00:25:09;14.80;99.90
22153;DHT22;11242;50.536;12.688;2022-08-03T00:27:34;14.80;99.90
22153;DHT22;11242;50.536;12.688;2022-08-03T00:30:00;14.70;99.90
22153;DHT22;11242;50.536;12.688;2022-08-03T00:32:26;14.70;99.90
22153;DHT22;11242;50.536;12.688;2022-08-03T00:34:51;14.70;99.90
22153;DHT22;11242;50.536;12.688;2022-08-03T00:37:17;14.60;99.90
22153;DHT22;11242;50.536;12.688;2022-08-03T00:39:42;14.50;99.90
22153;DHT22;11242;50.536;12.688;2022-08-03T00:42:10;14.50;99.90
22153;DHT22;11242;50.536;12.688;2022-08-03T00:44:42;14.50;99.90
22153;DHT22;11242;50.536;12.688;2022-08-03T00:47:09;14.40;99.90
22153;DHT22;11242;50.536;12.688;2022-08-03T00:49:39;14.40;99.90
22153;DHT22;11242;50.536;12.688;2022-08-03T00:52:07;14.30;99.90
22153;DHT22;11242;50.536;12.688;2022-08-03T00:54:33;14.30;99.90
22153;DHT22;11242;50.536;12.688;2022-08-03T00:57:00;14.30;99.90
22153;DHT22;11242;50.536;12.688;2022-08-03T00:59:26;14.20;99.90
22153;DHT22;11242;50.536;12.688;2022-08-03T01:01:52;14.10;99.90
22153;DHT22;11242;50.536;12.688;2022-08-03T01:04:18;14.00;99.90
22153;DHT22;11242;50.536;12.688;2022-08-03T01:07:39;14.00;99.90
22153;DHT22;11242;50.536;12.688;2022-08-03T01:10:00;14.00;99.90
22153;DHT22;11242;50.536;12.688;2022-08-03T01:12:35;14.00;99.90
22153;DHT22;11242;50.536;12.688;2022-08-03T01:15:14;14.10;99.90
22153;DHT22;11242;50.536;12.688;2022-08-03T01:18:00;14.10;99.90
22153;DHT22;11242;50.536;12.688;2022-08-03T01:20:32;14.10;99.90
22153;DHT22;11242;50.536;12.688;2022-08-03T01:23:58;14.20;99.90
22153;DHT22;11242;50.536;12.688;2022-08-03T01:27:02;14.40;99.90
22153;DHT22;11242;50.536;12.688;2022-08-03T01:29:35;14.40;99.90
22153;DHT22;11242;50.536;12.688;2022-08-03T01:32:07;14.40;99.90
22153;DHT22;11242;50.536;12.688;2022-08-03T01:34:37;14.40;99.90
22153;DHT22;11242;50.536;12.688;2022-08-03T01:37:06;14.40;99.90
22153;DHT22;11242;50.536;12.688;2022-08-03T01:39:36;14.30;99.90
22153;DHT22;11242;50.536;12.688;2022-08-03T01:42:04;14.20;99.90
22153;DHT22;11242;50.536;12.688;2022-08-03T01:44:33;14.10;99.90
22153;DHT22;11242;50.536;12.688;2022-08-03T01:47:01;14.00;99.90
22153;DHT22;11242;50.536;12.688;2022-08-03T01:49:29;13.90;99.90
22153;DHT22;11242;50.536;12.688;2022-08-03T01:51:57;13.90;99.90
22153;DHT22;11242;50.536;12.688;2022-08-03T01:54:24;13.80;99.90
22153;DHT22;11242;50.536;12.688;2022-08-03T01:56:51;13.80;99.90
22153;DHT22;11242;50.536;12.688;2022-08-03T01:59:18;13.70;99.90
22153;DHT22;11242;50.536;12.688;2022-08-03T02:01:45;13.60;99.90
22153;DHT22;11242;50.536;12.688;2022-08-03T02:04:12;13.60;99.90
22153;DHT22;11242;50.536;12.688;2022-08-03T02:06:39;13.50;99.90
22153;DHT22;11242;50.536;12.688;2022-08-03T02:09:06;13.50;99.90
22153;DHT22;11242;50.536;12.688;2022-08-03T02:11:33;13.50;99.90
22153;DHT22;11242;50.536;12.688;2022-08-03T02:14:02;13.50;99.90
22153;DHT22;11242;50.536;12.688;2022-08-03T02:16:30;13.40;99.90
22153;DHT22;11242;50.536;12.688;2022-08-03T02:18:57;13.40;99.90
22153;DHT22;11242;50.536;12.688;2022-08-03T02:21:23;13.30;99.90
22153;DHT22;11242;50.536;12.688;2022-08-03T02:23:50;13.30;99.90
22153;DHT22;11242;50.536;12.688;2022-08-03T02:26:18;13.30;99.90
22153;DHT22;11242;50.536;12.688;2022-08-03T02:28:46;13.30;99.90
22153;DHT22;11242;50.536;12.688;2022-08-03T02:31:17;13.20;99.90
22153;DHT22;11242;50.536;12.688;2022-08-03T02:33:48;13.20;99.90
22153;DHT22;11242;50.536;12.688;2022-08-03T02:36:21;13.10;99.90
22153;DHT22;11242;50.536;12.688;2022-08-03T02:38:51;13.10;99.90
22153;DHT22;11242;50.536;12.688;2022-08-03T02:41:24;13.10;99.90
22153;DHT22;11242;50.536;12.688;2022-08-03T02:43:53;13.10;99.90
22153;DHT22;11242;50.536;12.688;2022-08-03T02:46:24;13.10;99.90
22153;DHT22;11242;50.536;12.688;2022-08-03T02:48:53;13.20;99.90
22153;DHT22;11242;50.536;12.688;2022-08-03T02:51:20;13.20;99.90
22153;DHT22;11242;50.536;12.688;2022-08-03T02:53:47;13.30;99.90
22153;DHT22;11242;50.536;12.688;2022-08-03T02:56:13;13.40;99.90
22153;DHT22;11242;50.536;12.688;2022-08-03T02:58:42;13.70;99.90
22153;DHT22;11242;50.536;12.688;2022-08-03T03:01:08;13.80;99.90
22153;DHT22;11242;50.536;12.688;2022-08-03T03:03:35;13.90;99.90
22153;DHT22;11242;50.536;12.688;2022-08-03T03:06:01;13.80;99.90
22153;DHT22;11242;50.536;12.688;2022-08-03T03:08:28;13.80;99.90
22153;DHT22;11242;50.536;12.688;2022-08-03T03:10:56;13.70;99.90
22153;DHT22;11242;50.536;12.688;2022-08-03T03:13:22;13.60;99.90
22153;DHT22;11242;50.536;12.688;2022-08-03T03:15:49;13.60;99.90
22153;DHT22;11242;50.536;12.688;2022-08-03T03:18:16;13.60;99.90
22153;DHT22;11242;50.536;12.688;2022-08-03T03:20:42;13.50;99.90
22153;DHT22;11242;50.536;12.688;2022-08-03T03:23:09;13.50;99.90
22153;DHT22;11242;50.536;12.688;2022-08-03T03:25:36;13.40;99.90
22153;DHT22;11242;50.536;12.688;2022-08-03T03:28:02;13.40;99.90
22153;DHT22;11242;50.536;12.688;2022-08-03T03:30:29;13.30;99.90
22153;DHT22;11242;50.536;12.688;2022-08-03T03:32:56;13.30;99.90
22153;DHT22;11242;50.536;12.688;2022-08-03T03:35:22;13.30;99.90
22153;DHT22;11242;50.536;12.688;2022-08-03T03:37:48;13.20;99.90
22153;DHT22;11242;50.536;12.688;2022-08-03T03:40:14;13.10;99.90
22153;DHT22;11242;50.536;12.688;2022-08-03T03:42:39;13.10;99.90
22153;DHT22;11242;50.536;12.688;2022-08-03T03:45:06;13.00;99.90
22153;DHT22;11242;50.536;12.688;2022-08-03T03:47:36;13.10;99.90
22153;DHT22;11242;50.536;12.688;2022-08-03T03:50:04;13.00;99.90
22153;DHT22;11242;50.536;12.688;2022-08-03T03:52:30;13.00;99.90
22153;DHT22;11242;50.536;12.688;2022-08-03T03:54:56;13.00;99.90
22153;DHT22;11242;50.536;12.688;2022-08-03T03:57:22;13.10;99.90
22153;DHT22;11242;50.536;12.688;2022-08-03T03:59:47;13.00;99.90
22153;DHT22;11242;50.536;12.688;2022-08-03T04:02:13;13.00;99.90
22153;DHT22;11242;50.536;12.688;2022-08-03T04:04:39;13.00;99.90
22153;DHT22;11242;50.536;12.688;2022-08-03T04:07:24;13.10;99.90
22153;DHT22;11242;50.536;12.688;2022-08-03T04:10:14;13.10;99.90
22153;DHT22;11242;50.536;12.688;2022-08-03T04:13:00;13.10;99.90
22153;DHT22;11242;50.536;12.688;2022-08-03T04:15:27;13.20;99.90
22153;DHT22;11242;50.536;12.688;2022-08-03T04:17:56;13.20;99.90
22153;DHT22;11242;50.536;12.688;2022-08-03T04:20:23;13.20;99.90
22153;DHT22;11242;50.536;12.688;2022-08-03T04:22:51;13.20;99.90
22153;DHT22;11242;50.536;12.688;2022-08-03T04:25:19;13.30;99.90
22153;DHT22;11242;50.536;12.688;2022-08-03T04:27:48;13.40;99.90
22153;DHT22;11242;50.536;12.688;2022-08-03T04:30:17;13.40;99.90
22153;DHT22;11242;50.536;12.688;2022-08-03T04:32:44;13.50;99.90
22153;DHT22;11242;50.536;12.688;2022-08-03T04:35:15;13.50;99.90
22153;DHT22;11242;50.536;12.688;2022-08-03T04:37:42;13.60;99.90
22153;DHT22;11242;50.536;12.688;2022-08-03T04:40:21;13.60;99.90
22153;DHT22;11242;50.536;12.688;2022-08-03T04:42:47;13.70;99.90
22153;DHT22;11242;50.536;12.688;2022-08-03T04:45:15;13.80;99.90
22153;DHT22;11242;50.536;12.688;2022-08-03T04:47:41;13.80;99.90
22153;DHT22;11242;50.536;12.688;2022-08-03T04:50:08;13.90;99.90
22153;DHT22;11242;50.536;12.688;2022-08-03T04:52:34;14.10;99.90
22153;DHT22;11242;50.536;12.688;2022-08-03T04:55:00;14.50;99.90
22153;DHT22;11242;50.536;12.688;2022-08-03T04:57:26;16.10;99.90
22153;DHT22;11242;50.536;12.688;2022-08-03T04:59:52;18.70;99.90
22153;DHT22;11242;50.536;12.688;2022-08-03T05:02:19;21.10;99.90
22153;DHT22;11242;50.536;12.688;2022-08-03T05:04:45;23.20;99.90
22153;DHT22;11242;50.536;12.688;2022-08-03T05:07:15;24.90;99.90
22153;DHT22;11242;50.536;12.688;2022-08-03T05:09:41;26.50;99.90
22153;DHT22;11242;50.536;12.688;2022-08-03T05:12:06;27.50;99.90
22153;DHT22;11242;50.536;12.688;2022-08-03T05:14:33;27.80;97.30
22153;DHT22;11242;50.536;12.688;2022-08-03T05:17:00;27.20;98.10
22153;DHT22;11242;50.536;12.688;2022-08-03T05:19:25;26.40;99.90
22153;DHT22;11242;50.536;12.688;2022-08-03T05:21:51;26.30;99.90
22153;DHT22;11242;50.536;12.688;2022-08-03T05:24:16;27.00;99.90
22153;DHT22;11242;50.536;12.688;2022-08-03T05:26:42;27.80;98.50
22153;DHT22;11242;50.536;12.688;2022-08-03T05:29:08;29.60;89.90
22153;DHT22;11242;50.536;12.688;2022-08-03T05:31:33;30.70;77.10
22153;DHT22;11242;50.536;12.688;2022-08-03T05:33:59;31.30;70.10
22153;DHT22;11242;50.536;12.688;2022-08-03T05:36:24;31.90;66.00
22153;DHT22;11242;50.536;12.688;2022-08-03T05:38:50;32.30;62.90
22153;DHT22;11242;50.536;12.688;2022-08-03T05:41:15;33.10;60.20
22153;DHT22;11242;50.536;12.688;2022-08-03T05:43:41;33.90;57.30
22153;DHT22;11242;50.536;12.688;2022-08-03T05:46:07;34.00;55.60
22153;DHT22;11242;50.536;12.688;2022-08-03T05:48:32;35.00;54.90
22153;DHT22;11242;50.536;12.688;2022-08-03T05:50:58;35.70;53.00
22153;DHT22;11242;50.536;12.688;2022-08-03T05:53:23;36.10;52.00
22153;DHT22;11242;50.536;12.688;2022-08-03T05:55:50;36.70;50.90
22153;DHT22;11242;50.536;12.688;2022-08-03T05:58:16;36.70;50.00
22153;DHT22;11242;50.536;12.688;2022-08-03T06:00:41;36.60;50.30
22153;DHT22;11242;50.536;12.688;2022-08-03T06:03:07;36.30;50.70
22153;DHT22;11242;50.536;12.688;2022-08-03T06:05:32;36.00;50.90
22153;DHT22;11242;50.536;12.688;2022-08-03T06:08:01;36.30;48.70
22153;DHT22;11242;50.536;12.688;2022-08-03T06:10:27;36.00;47.70
22153;DHT22;11242;50.536;12.688;2022-08-03T06:12:52;36.00;47.10
22153;DHT22;11242;50.536;12.688;2022-08-03T06:15:18;35.50;48.20
22153;DHT22;11242;50.536;12.688;2022-08-03T06:17:47;34.90;49.80
22153;DHT22;11242;50.536;12.688;2022-08-03T06:20:15;35.00;50.30
22153;DHT22;11242;50.536;12.688;2022-08-03T06:22:41;35.80;49.10
22153;DHT22;11242;50.536;12.688;2022-08-03T06:25:08;36.20;47.40
22153;DHT22;11242;50.536;12.688;2022-08-03T06:27:33;36.50;47.50
22153;DHT22;11242;50.536;12.688;2022-08-03T06:29:59;37.30;46.30
22153;DHT22;11242;50.536;12.688;2022-08-03T06:32:24;37.30;46.80
22153;DHT22;11242;50.536;12.688;2022-08-03T06:34:50;36.20;46.20
22153;DHT22;11242;50.536;12.688;2022-08-03T06:37:15;36.20;46.40
22153;DHT22;11242;50.536;12.688;2022-08-03T06:39:41;36.40;46.10
22153;DHT22;11242;50.536;12.688;2022-08-03T06:42:06;37.20;46.90
22153;DHT22;11242;50.536;12.688;2022-08-03T06:44:32;38.40;45.40
22153;DHT22;11242;50.536;12.688;2022-08-03T06:46:58;38.20;44.70
22153;DHT22;11242;50.536;12.688;2022-08-03T06:49:23;39.10;44.50
22153;DHT22;11242;50.536;12.688;2022-08-03T06:51:49;38.50;43.50
22153;DHT22;11242;50.536;12.688;2022-08-03T06:54:19;39.40;43.50
22153;DHT22;11242;50.536;12.688;2022-08-03T06:56:47;39.20;42.80
22153;DHT22;11242;50.536;12.688;2022-08-03T06:59:12;40.00;41.20
22153;DHT22;11242;50.536;12.688;2022-08-03T07:01:38;40.60;40.80
22153;DHT22;11242;50.536;12.688;2022-08-03T07:04:03;40.20;40.90
22153;DHT22;11242;50.536;12.688;2022-08-03T07:06:30;40.50;40.50
22153;DHT22;11242;50.536;12.688;2022-08-03T07:08:56;40.60;39.00
22153;DHT22;11242;50.536;12.688;2022-08-03T07:11:21;40.60;38.90
22153;DHT22;11242;50.536;12.688;2022-08-03T07:13:47;40.40;38.00
22153;DHT22;11242;50.536;12.688;2022-08-03T07:16:13;40.40;38.70
22153;DHT22;11242;50.536;12.688;2022-08-03T07:18:39;39.70;38.00
22153;DHT22;11242;50.536;12.688;2022-08-03T07:21:04;39.80;39.30
22153;DHT22;11242;50.536;12.688;2022-08-03T07:23:30;40.30;38.60
22153;DHT22;11242;50.536;12.688;2022-08-03T07:25:56;41.20;38.40
22153;DHT22;11242;50.536;12.688;2022-08-03T07:28:21;41.80;38.40
22153;DHT22;11242;50.536;12.688;2022-08-03T07:30:47;40.80;39.70
22153;DHT22;11242;50.536;12.688;2022-08-03T07:33:15;40.70;38.70
22153;DHT22;11242;50.536;12.688;2022-08-03T07:35:41;41.10;38.00
22153;DHT22;11242;50.536;12.688;2022-08-03T07:38:07;41.00;37.40
22153;DHT22;11242;50.536;12.688;2022-08-03T07:40:32;41.00;38.00
22153;DHT22;11242;50.536;12.688;2022-08-03T07:42:58;40.60;37.70
22153;DHT22;11242;50.536;12.688;2022-08-03T07:45:24;40.20;37.60
22153;DHT22;11242;50.536;12.688;2022-08-03T07:47:50;39.10;37.20
22153;DHT22;11242;50.536;12.688;2022-08-03T07:50:16;38.20;36.60
22153;DHT22;11242;50.536;12.688;2022-08-03T07:52:41;38.40;37.00
22153;DHT22;11242;50.536;12.688;2022-08-03T07:55:20;39.40;35.80
22153;DHT22;11242;50.536;12.688;2022-08-03T07:57:46;39.80;34.40
22153;DHT22;11242;50.536;12.688;2022-08-03T08:00:17;39.50;34.60
22153;DHT22;11242;50.536;12.688;2022-08-03T08:02:43;39.60;35.10
22153;DHT22;11242;50.536;12.688;2022-08-03T08:05:09;39.20;34.70
22153;DHT22;11242;50.536;12.688;2022-08-03T08:07:36;39.00;34.70
22153;DHT22;11242;50.536;12.688;2022-08-03T08:10:03;38.10;34.10
22153;DHT22;11242;50.536;12.688;2022-08-03T08:12:34;38.20;35.30
22153;DHT22;11242;50.536;12.688;2022-08-03T08:14:59;39.10;33.30
22153;DHT22;11242;50.536;12.688;2022-08-03T08:17:25;38.40;32.80
22153;DHT22;11242;50.536;12.688;2022-08-03T08:19:52;38.90;33.00
22153;DHT22;11242;50.536;12.688;2022-08-03T08:22:18;38.80;32.90
22153;DHT22;11242;50.536;12.688;2022-08-03T08:24:44;38.90;33.40
22153;DHT22;11242;50.536;12.688;2022-08-03T08:27:12;39.30;32.40
22153;DHT22;11242;50.536;12.688;2022-08-03T08:29:38;39.20;33.90
22153;DHT22;11242;50.536;12.688;2022-08-03T08:32:04;39.50;32.30
22153;DHT22;11242;50.536;12.688;2022-08-03T08:34:29;39.30;32.20
22153;DHT22;11242;50.536;12.688;2022-08-03T08:36:55;39.80;32.30
22153;DHT22;11242;50.536;12.688;2022-08-03T08:39:20;39.80;32.90
22153;DHT22;11242;50.536;12.688;2022-08-03T08:41:50;40.00;32.00
22153;DHT22;11242;50.536;12.688;2022-08-03T08:44:15;39.50;32.80
22153;DHT22;11242;50.536;12.688;2022-08-03T08:46:41;39.60;33.50
22153;DHT22;11242;50.536;12.688;2022-08-03T08:49:08;39.90;32.50
22153;DHT22;11242;50.536;12.688;2022-08-03T08:51:34;39.50;32.40
22153;DHT22;11242;50.536;12.688;2022-08-03T08:54:06;37.90;33.50
22153;DHT22;11242;50.536;12.688;2022-08-03T08:56:32;38.00;35.00
22153;DHT22;11242;50.536;12.688;2022-08-03T08:59:00;39.90;32.50
22153;DHT22;11242;50.536;12.688;2022-08-03T09:01:26;40.70;31.30
22153;DHT22;11242;50.536;12.688;2022-08-03T09:03:52;40.70;31.20
22153;DHT22;11242;50.536;12.688;2022-08-03T09:06:19;40.30;32.50
22153;DHT22;11242;50.536;12.688;2022-08-03T09:08:45;40.30;30.30
22153;DHT22;11242;50.536;12.688;2022-08-03T09:11:11;40.10;30.50
22153;DHT22;11242;50.536;12.688;2022-08-03T09:13:37;39.50;31.30
22153;DHT22;11242;50.536;12.688;2022-08-03T09:16:10;40.10;30.80
22153;DHT22;11242;50.536;12.688;2022-08-03T09:18:36;40.40;29.80
22153;DHT22;11242;50.536;12.688;2022-08-03T09:21:22;40.40;30.20
22153;DHT22;11242;50.536;12.688;2022-08-03T09:23:51;40.70;30.00
22153;DHT22;11242;50.536;12.688;2022-08-03T09:26:25;40.60;30.00
22153;DHT22;11242;50.536;12.688;2022-08-03T09:29:03;40.40;30.20
22153;DHT22;11242;50.536;12.688;2022-08-03T09:31:37;39.10;32.40
22153;DHT22;11242;50.536;12.688;2022-08-03T09:34:08;38.80;31.50
22153;DHT22;11242;50.536;12.688;2022-08-03T09:36:35;38.50;30.20
22153;DHT22;11242;50.536;12.688;2022-08-03T09:39:07;36.00;34.00
22153;DHT22;11242;50.536;12.688;2022-08-03T09:41:35;33.30;37.70
22153;DHT22;11242;50.536;12.688;2022-08-03T09:44:01;31.30;40.10
22153;DHT22;11242;50.536;12.688;2022-08-03T09:46:27;30.90;40.90
22153;DHT22;11242;50.536;12.688;2022-08-03T09:49:11;30.70;40.80
22153;DHT22;11242;50.536;12.688;2022-08-03T09:51:37;30.90;41.90
22153;DHT22;11242;50.536;12.688;2022-08-03T09:54:03;30.60;42.30
22153;DHT22;11242;50.536;12.688;2022-08-03T09:56:43;30.50;42.70
22153;DHT22;11242;50.536;12.688;2022-08-03T09:59:10;30.50;42.70
22153;DHT22;11242;50.536;12.688;2022-08-03T10:01:36;30.30;43.70
22153;DHT22;11242;50.536;12.688;2022-08-03T10:04:03;30.20;43.00
22153;DHT22;11242;50.536;12.688;2022-08-03T10:06:29;30.40;42.50
22153;DHT22;11242;50.536;12.688;2022-08-03T10:09:09;30.30;42.10
22153;DHT22;11242;50.536;12.688;2022-08-03T10:11:36;30.40;41.90
22153;DHT22;11242;50.536;12.688;2022-08-03T10:14:06;30.40;41.20
22153;DHT22;11242;50.536;12.688;2022-08-03T10:16:35;30.50;41.90
22153;DHT22;11242;50.536;12.688;2022-08-03T10:19:02;30.40;42.00
22153;DHT22;11242;50.536;12.688;2022-08-03T10:21:32;30.30;42.50
22153;DHT22;11242;50.536;12.688;2022-08-03T10:24:01;30.40;41.80
22153;DHT22;11242;50.536;12.688;2022-08-03T10:26:28;30.50;43.60
22153;DHT22;11242;50.536;12.688;2022-08-03T10:28:58;30.50;42.60
22153;DHT22;11242;50.536;12.688;2022-08-03T10:31:25;30.50;41.30
22153;DHT22;11242;50.536;12.688;2022-08-03T10:33:57;30.40;42.00
22153;DHT22;11242;50.536;12.688;2022-08-03T10:36:24;30.20;42.30
22153;DHT22;11242;50.536;12.688;2022-08-03T10:38:52;30.00;42.20
22153;DHT22;11242;50.536;12.688;2022-08-03T10:41:22;30.30;42.60
22153;DHT22;11242;50.536;12.688;2022-08-03T10:43:56;30.00;43.20
22153;DHT22;11242;50.536;12.688;2022-08-03T10:46:23;30.20;42.50
22153;DHT22;11242;50.536;12.688;2022-08-03T10:48:50;30.40;42.10
22153;DHT22;11242;50.536;12.688;2022-08-03T10:51:18;30.60;42.20
22153;DHT22;11242;50.536;12.688;2022-08-03T10:53:44;30.80;42.10
22153;DHT22;11242;50.536;12.688;2022-08-03T11:02:12;30.50;38.70
22153;DHT22;11242;50.536;12.688;2022-08-03T11:04:39;30.40;39.90
22153;DHT22;11242;50.536;12.688;2022-08-03T11:07:20;30.60;40.90
22153;DHT22;11242;50.536;12.688;2022-08-03T11:09:54;30.70;40.90
22153;DHT22;11242;50.536;12.688;2022-08-03T11:12:24;30.70;40.70
22153;DHT22;11242;50.536;12.688;2022-08-03T11:14:52;30.60;40.90
22153;DHT22;11242;50.536;12.688;2022-08-03T11:17:18;30.80;40.60
22153;DHT22;11242;50.536;12.688;2022-08-03T11:19:49;30.50;40.70
22153;DHT22;11242;50.536;12.688;2022-08-03T11:22:15;30.40;41.40
22153;DHT22;11242;50.536;12.688;2022-08-03T11:35:15;30.50;39.70
22153;DHT22;11242;50.536;12.688;2022-08-03T11:40:35;30.50;40.70
22153;DHT22;11242;50.536;12.688;2022-08-03T11:43:02;30.70;39.50
22153;DHT22;11242;50.536;12.688;2022-08-03T11:45:28;31.10;39.50
22153;DHT22;11242;50.536;12.688;2022-08-03T11:47:56;31.30;38.90
22153;DHT22;11242;50.536;12.688;2022-08-03T11:50:24;31.20;37.90
22153;DHT22;11242;50.536;12.688;2022-08-03T11:52:50;31.20;39.90
22153;DHT22;11242;50.536;12.688;2022-08-03T11:55:18;31.00;38.20
22153;DHT22;11242;50.536;12.688;2022-08-03T11:57:46;30.70;38.20
22153;DHT22;11242;50.536;12.688;2022-08-03T12:00:23;31.00;38.60
22153;DHT22;11242;50.536;12.688;2022-08-03T12:02:59;31.20;39.50
22153;DHT22;11242;50.536;12.688;2022-08-03T12:08:14;31.20;39.20
22153;DHT22;11242;50.536;12.688;2022-08-03T12:10:46;31.30;39.50
22153;DHT22;11242;50.536;12.688;2022-08-03T12:13:12;31.50;39.10
22153;DHT22;11242;50.536;12.688;2022-08-03T12:15:37;31.60;38.40
22153;DHT22;11242;50.536;12.688;2022-08-03T12:18:12;31.60;37.20
22153;DHT22;11242;50.536;12.688;2022-08-03T12:20:38;31.50;37.20
22153;DHT22;11242;50.536;12.688;2022-08-03T12:23:05;31.50;38.50
22153;DHT22;11242;50.536;12.688;2022-08-03T12:25:32;31.70;38.60
22153;DHT22;11242;50.536;12.688;2022-08-03T12:28:15;31.50;37.40
22153;DHT22;11242;50.536;12.688;2022-08-03T12:30:47;31.60;37.70
22153;DHT22;11242;50.536;12.688;2022-08-03T12:33:26;31.90;37.90
22153;DHT22;11242;50.536;12.688;2022-08-03T12:36:08;32.00;37.00
22153;DHT22;11242;50.536;12.688;2022-08-03T12:38:36;31.90;38.00
22153;DHT22;11242;50.536;12.688;2022-08-03T12:41:08;31.80;36.10
22153;DHT22;11242;50.536;12.688;2022-08-03T12:43:47;31.60;36.30
22153;DHT22;11242;50.536;12.688;2022-08-03T12:46:15;31.70;36.30
22153;DHT22;11242;50.536;12.688;2022-08-03T12:49:09;31.90;35.70
22153;DHT22;11242;50.536;12.688;2022-08-03T12:54:18;31.70;36.20
22153;DHT22;11242;50.536;12.688;2022-08-03T12:57:16;31.60;36.40
22153;DHT22;11242;50.536;12.688;2022-08-03T12:59:43;31.80;35.90
22153;DHT22;11242;50.536;12.688;2022-08-03T13:04:39;31.70;36.50
22153;DHT22;11242;50.536;12.688;2022-08-03T13:07:09;31.70;37.10
22153;DHT22;11242;50.536;12.688;2022-08-03T13:12:18;31.70;37.60
22153;DHT22;11242;50.536;12.688;2022-08-03T13:14:49;31.70;36.50
22153;DHT22;11242;50.536;12.688;2022-08-03T13:17:15;31.80;36.30
22153;DHT22;11242;50.536;12.688;2022-08-03T13:19:41;31.60;34.70
22153;DHT22;11242;50.536;12.688;2022-08-03T13:24:41;31.30;35.60
22153;DHT22;11242;50.536;12.688;2022-08-03T13:27:07;31.10;35.30
22153;DHT22;11242;50.536;12.688;2022-08-03T13:29:33;30.90;35.70
22153;DHT22;11242;50.536;12.688;2022-08-03T13:32:00;30.90;36.00
22153;DHT22;11242;50.536;12.688;2022-08-03T13:34:25;30.90;35.40
22153;DHT22;11242;50.536;12.688;2022-08-03T13:36:52;31.10;35.20
22153;DHT22;11242;50.536;12.688;2022-08-03T13:39:17;31.30;36.10
22153;DHT22;11242;50.536;12.688;2022-08-03T13:41:44;31.40;36.00
22153;DHT22;11242;50.536;12.688;2022-08-03T13:44:10;31.30;35.40
22153;DHT22;11242;50.536;12.688;2022-08-03T13:46:35;31.30;34.90
22153;DHT22;11242;50.536;12.688;2022-08-03T13:49:01;31.30;34.00
22153;DHT22;11242;50.536;12.688;2022-08-03T13:51:27;31.40;33.70
22153;DHT22;11242;50.536;12.688;2022-08-03T13:53:52;31.30;33.10
22153;DHT22;11242;50.536;12.688;2022-08-03T13:56:18;31.30;34.20
22153;DHT22;11242;50.536;12.688;2022-08-03T13:58:43;31.70;33.80
22153;DHT22;11242;50.536;12.688;2022-08-03T14:01:09;31.90;33.10
22153;DHT22;11242;50.536;12.688;2022-08-03T14:03:35;31.80;32.60
22153;DHT22;11242;50.536;12.688;2022-08-03T14:06:01;31.80;32.20
22153;DHT22;11242;50.536;12.688;2022-08-03T14:08:26;31.80;33.60
22153;DHT22;11242;50.536;12.688;2022-08-03T14:10:52;32.00;33.40
22153;DHT22;11242;50.536;12.688;2022-08-03T14:13:17;31.90;34.80
22153;DHT22;11242;50.536;12.688;2022-08-03T14:15:43;31.90;35.10
22153;DHT22;11242;50.536;12.688;2022-08-03T14:18:09;31.50;35.40
22153;DHT22;11242;50.536;12.688;2022-08-03T14:20:35;31.70;35.80
22153;DHT22;11242;50.536;12.688;2022-08-03T14:23:01;31.70;36.80
22153;DHT22;11242;50.536;12.688;2022-08-03T14:25:26;31.90;38.40
22153;DHT22;11242;50.536;12.688;2022-08-03T14:27:52;31.90;36.60
22153;DHT22;11242;50.536;12.688;2022-08-03T14:30:18;31.90;36.90
22153;DHT22;11242;50.536;12.688;2022-08-03T14:32:43;31.90;36.60
22153;DHT22;11242;50.536;12.688;2022-08-03T14:35:09;31.90;36.30
22153;DHT22;11242;50.536;12.688;2022-08-03T14:37:34;31.60;36.10
22153;DHT22;11242;50.536;12.688;2022-08-03T14:40:00;31.40;36.50
22153;DHT22;11242;50.536;12.688;2022-08-03T14:42:26;31.50;36.10
22153;DHT22;11242;50.536;12.688;2022-08-03T14:44:51;31.40;36.70
22153;DHT22;11242;50.536;12.688;2022-08-03T14:47:17;31.40;36.50
22153;DHT22;11242;50.536;12.688;2022-08-03T14:49:42;31.30;37.00
22153;DHT22;11242;50.536;12.688;2022-08-03T14:52:08;31.40;36.80
22153;DHT22;11242;50.536;12.688;2022-08-03T14:54:34;31.60;36.90
22153;DHT22;11242;50.536;12.688;2022-08-03T14:56:59;31.80;37.10
22153;DHT22;11242;50.536;12.688;2022-08-03T14:59:25;31.90;38.20
22153;DHT22;11242;50.536;12.688;2022-08-03T15:01:51;31.90;38.60
22153;DHT22;11242;50.536;12.688;2022-08-03T15:04:17;31.80;38.00
22153;DHT22;11242;50.536;12.688;2022-08-03T15:06:42;31.80;38.00
22153;DHT22;11242;50.536;12.688;2022-08-03T15:09:08;31.80;38.40
22153;DHT22;11242;50.536;12.688;2022-08-03T15:11:34;31.80;38.90
22153;DHT22;11242;50.536;12.688;2022-08-03T15:13:59;31.70;38.00
22153;DHT22;11242;50.536;12.688;2022-08-03T15:16:25;31.70;37.10
22153;DHT22;11242;50.536;12.688;2022-08-03T15:18:50;31.80;37.80
22153;DHT22;11242;50.536;12.688;2022-08-03T15:21:16;31.70;38.30
22153;DHT22;11242;50.536;12.688;2022-08-03T15:23:41;31.70;37.30
22153;DHT22;11242;50.536;12.688;2022-08-03T15:26:07;31.80;38.00
22153;DHT22;11242;50.536;12.688;2022-08-03T15:28:33;31.70;38.30
22153;DHT22;11242;50.536;12.688;2022-08-03T15:30:59;31.70;37.90
22153;DHT22;11242;50.536;12.688;2022-08-03T15:33:24;31.60;38.90
22153;DHT22;11242;50.536;12.688;2022-08-03T15:35:50;31.40;38.90
22153;DHT22;11242;50.536;12.688;2022-08-03T15:38:16;31.40;38.30
22153;DHT22;11242;50.536;12.688;2022-08-03T15:40:41;31.50;38.30
22153;DHT22;11242;50.536;12.688;2022-08-03T15:43:07;31.40;38.30
22153;DHT22;11242;50.536;12.688;2022-08-03T15:45:33;31.40;38.80
22153;DHT22;11242;50.536;12.688;2022-08-03T15:47:58;31.40;39.60
22153;DHT22;11242;50.536;12.688;2022-08-03T15:50:24;31.40;40.00
22153;DHT22;11242;50.536;12.688;2022-08-03T15:52:49;31.40;40.40